Elk, CA

3:43 AM PDT on September 16, 2014 (GMT -0700)
Ukiah Municipal | Change Station
CLOSE
Current Station
Airport
Location: Ukiah,
Elevation: 614 ft
Nearby Weather Stations

Elev 614 ft 39.13 °N, 123.20 °W | Updated 47 minutes ago

Clear
Clear
55 °F
Feels Like 55 °F
N
0
Wind Variable Wind from North

Today
High -- | Low -- °F
--% Chance of Precip.
Yesterday
High -- | Low -- °F
Precip. -- in
6:57 AM 7:21 PM
Waning Gibbous, 46% visible
Pressure 29.92 in
Visibility 10.0 miles
Clouds Clear
Dew Point 47 °F
Humidity 74%
Rainfall 0.00 in
Snow Depth 0 in , 0 in , 0 in
UV 0 out of 12
Pollen 6.90 out of 12
Air Quality Not available.
Flu Activity Not available.
METAR KUKI 160956Z AUTO 00000KT 10SM CLR 13/08 A2994 RMK AO2 SLP132 T01280083

More Conditions Fewer Conditions

Pressure 29.92 in
Visibility 10.0 miles
Clouds Clear
Dew Point 47 °F
Humidity 74%
Rainfall 0.00 in
Snow Depth 0 in , 0 in , 0 in
UV 0 out of 12
Pollen 6.90 out of 12
Air Quality Not available.
Flu Activity Not available.
METAR KUKI 160956Z AUTO 00000KT 10SM CLR 13/08 A2994 RMK AO2 SLP132 T01280083

More Conditions Fewer Conditions

10-Day Weather Forecast

Almanac

Astronomy

Sep. 16, 2014 Rise Set
Actual Time 6:57 AM PDT 7:21 PM PDT
Civil Twilight 6:30 AM PDT 7:48 PM PDT
Nautical Twilight 5:58 AM PDT 8:19 PM PDT
Astronomical Twilight 5:26 AM PDT 8:51 PM PDT
Moon 12:13 AM PDT 2:47 PM PDT
Length of Visible Light 13h 17m
Length of Day
12h 24m
Tomorrow will be 2m 31s shorter.
Waning Gibbous, 46% of the Moon is Illuminated
Today
Waning Gibbous
Sep 24
New
Oct 1
First Quarter
Oct 8
Full
Oct 15
Last Quarter

Today's Extremes

State Highs State Lows

Community

WunderPhotos

Upload Photos

1,753,720 photos uploaded!

WunderBlogs® & News

Nearby

Snow Depth

Station Depth Elevation
Monitor Pass 0 in 8350 ft
Adin Mountain 0 in 6200 ft
Hagan's Meadow 0 in 8000 ft
Blue Lakes 0 in 8000 ft
Tahoe City Cross 0 in 6750 ft

Earthquake Activity

City Distance Mag. Time & Date
Covelo, California 52 miles 3.3 1:17 PM PDT
2014-09-14
Cobb, California 53 miles 2.7 11:07 AM PDT
2014-09-14
Minimum magnitude displayed is 2.5.

Coastal Water Temperatures

Place Temperature
Arena Cove, CA 60.1 °F
North Spit, CA 60.1 °F
Point Reyes, CA 62.1 °F
San Francisco, CA 64.9 °F
Richmond, CA 68.0 °F

Nearby Weather Stations